METAR Data
IDs: Format: Raw Decoded Include TAF

Data at: 0623 UTC 23 Feb 2019

K3T5 230615Z AUTO 00000KT 3/4SM BR OVC004 13/13 A2983 RMK AO2 T01310131
K3T5 230555Z AUTO 00000KT 1SM BR OVC002 13/13 A2983 RMK AO2 T01300130 10135 20130 401350101
K3T5 230535Z AUTO 00000KT 3/4SM BR OVC002 13/13 A2984 RMK AO2 T01310131
K3T5 230515Z AUTO 00000KT 1/2SM FG OVC002 13/13 A2986 RMK AO2 T01300130
K3T5 230455Z AUTO 00000KT 1/2SM FG OVC002 13/13 A2986 RMK AO2 T01300130
K3T5 230435Z AUTO 00000KT 1/2SM FG OVC002 13/13 A2987 RMK AO2 T01300130
K3T5 230415Z AUTO 00000KT 1/2SM FG OVC002 13/13 A2987 RMK AO2 T01300130
K3T5 230355Z AUTO 00000KT 1/2SM FG OVC002 13/13 A2987 RMK AO2 T01310131
K3T5 230335Z AUTO 00000KT 3/4SM BR OVC002 13/13 A2988 RMK AO2 T01300130
K3T5 230315Z AUTO 00000KT 1 1/4SM BR OVC002 13/13 A2988 RMK AO2 T01300130
K3T5 230255Z AUTO 00000KT 1SM BR OVC002 13/13 A2988 RMK AO2 T01310131
K3T5 230235Z AUTO 00000KT 1 1/4SM BR OVC002 13/13 A2988 RMK AO2 T01310131
K3T5 230215Z AUTO 00000KT 1SM RA OVC002 13/13 A2988 RMK AO2 T01310131
K3T5 230155Z AUTO 00000KT 1SM BR OVC002 13/13 A2987 RMK AO2 T01310131
K3T5 230135Z AUTO 00000KT 1 1/4SM BR OVC002 13/13 A2987 RMK AO2 T01310131
K3T5 230115Z AUTO 00000KT 1 1/4SM BR OVC004 13/13 A2987 RMK AO2 T01320132
K3T5 230055Z AUTO 00000KT 2SM BR OVC004 13/13 A2987 RMK AO2 T01320132
K3T5 230035Z AUTO 00000KT 4SM BR OVC004 13/13 A2987 RMK AO2 T01320132
K3T5 230015Z AUTO 00000KT 5SM BR OVC004 13/13 A2987 RMK AO2 T01330133
K3T5 222355Z AUTO 00000KT 5SM BR OVC004 14/14 A2986 RMK AO2 T01350135 10135 20120
K3T5 222335Z AUTO 07003KT 5SM BR OVC004 14/14 A2987 RMK AO2 T01350135
K3T5 222315Z AUTO 05003KT 5SM BR OVC004 14/14 A2987 RMK AO2 T01350135
K3T5 222255Z AUTO 00000KT 5SM BR OVC004 14/14 A2987 RMK AO2 T01350135
K3T5 222235Z AUTO 00000KT 5SM BR OVC004 14/14 A2988 RMK AO2 T01350135
K3T5 222215Z AUTO 04003KT 5SM BR OVC004 13/13 A2987 RMK AO2 T01330133
K3T5 222155Z AUTO 03003KT 5SM BR OVC004 13/13 A2987 RMK AO2 T01310131
K3T5 222135Z AUTO 03003KT 5SM BR OVC004 13/13 A2988 RMK AO2 T01320132
K3T5 222115Z AUTO 01005KT 5SM BR OVC004 13/13 A2988 RMK AO2 T01310131
K3T5 222055Z AUTO 36004KT 5SM BR OVC004 13/13 A2988 RMK AO2 T01300130
K3T5 222035Z AUTO 00000KT 7SM OVC004 13/13 A2989 RMK AO2 T01310131
K3T5 222015Z AUTO 01003KT 7SM OVC004 13/13 A2989 RMK AO2 T01290129
K3T5 221955Z AUTO 35004KT 7SM OVC004 13/13 A2990 RMK AO2 T01280128
K3T5 221935Z AUTO 36003KT 7SM OVC004 13/13 A2991 RMK AO2 T01280128
K3T5 221915Z AUTO 36003KT 7SM OVC004 13/13 A2991 RMK AO2 T01260126
K3T5 221855Z AUTO 02003KT 3SM BR OVC002 12/12 A2991 RMK AO2 T01230123
K3T5 221835Z AUTO 36003KT 1 1/4SM BR OVC002 12/12 A2993 RMK AO2 T01210121
K3T5 221815Z AUTO 35005KT 3/4SM -DZ OVC002 12/12 A2995 RMK AO2 T01210121
K3T5 221755Z AUTO 34006KT 1/2SM -DZ OVC002 12/12 A2995 RMK AO2 T01200120 10121 20102
K3T5 221735Z AUTO 33005KT 1SM DZ OVC002 12/12 A2996 RMK AO2 T01190119
K3T5 221715Z AUTO 33004KT 1SM -DZ OVC002 12/12 A2997 RMK AO2 T01180118
K3T5 221655Z AUTO 33006KT 1SM -DZ OVC002 12/12 A2997 RMK AO2 T01170117
K3T5 221635Z AUTO 32006KT 3/4SM -DZ OVC002 12/12 A2996 RMK AO2 T01160116
K3T5 221615Z AUTO 32005KT 1SM BR OVC002 12/12 A2997 RMK AO2 T01150115
K3T5 221555Z AUTO 33004KT 2SM BR OVC004 12/12 A2997 RMK AO2 T01170117
K3T5 221535Z AUTO 34003KT 4SM BR OVC004 12/12 A2997 RMK AO2 T01170117
K3T5 221515Z AUTO 00000KT 5SM BR OVC004 12/12 A2996 RMK AO2 T01150115
K3T5 221455Z AUTO 00000KT 5SM BR OVC004 11/11 A2996 RMK AO2 T01140114
K3T5 221435Z AUTO 00000KT 7SM OVC004 11/11 A2995 RMK AO2 T01120112
K3T5 221415Z AUTO 00000KT 7SM OVC004 11/11 A2993 RMK AO2 T01100110
K3T5 221355Z AUTO 11004KT 7SM OVC004 11/11 A2993 RMK AO2 T01100110
K3T5 221335Z AUTO 00000KT 5SM BR OVC004 11/11 A2992 RMK AO2 T01080108
K3T5 221315Z AUTO 00000KT 5SM BR OVC004 11/11 A2991 RMK AO2 T01060106
K3T5 221255Z AUTO 00000KT 5SM BR OVC004 11/11 A2991 RMK AO2 T01050105
K3T5 221235Z AUTO 09003KT 5SM BR OVC004 11/11 A2991 RMK AO2 T01050105
K3T5 221215Z AUTO 00000KT 5SM BR OVC002 10/10 A2992 RMK AO2 T01040104
K3T5 221155Z AUTO 00000KT 5SM BR OVC002 10/10 A2992 RMK AO2 T01030103 10110 20101
K3T5 221135Z AUTO 07003KT 5SM BR OVC002 10/10 A2992 RMK AO2 T01030103
K3T5 221115Z AUTO 06003KT 5SM BR OVC002 10/10 A2991 RMK AO2 T01010101
K3T5 221055Z AUTO 07004KT 5SM BR OVC002 10/10 A2991 RMK AO2 T01020102
K3T5 221035Z AUTO 07003KT 5SM BR OVC002 10/10 A2992 RMK AO2 T01010101
K3T5 221015Z AUTO 03003KT 5SM BR OVC002 10/10 A2993 RMK AO2 T01040104
K3T5 220955Z AUTO 00000KT 5SM BR OVC002 10/10 A2993 RMK AO2 T01030103
K3T5 220935Z AUTO 06005KT 5SM BR OVC002 10/10 A2993 RMK AO2 T01030103
K3T5 220915Z AUTO 04003KT 5SM BR OVC002 10/10 A2992 RMK AO2 T01040104
K3T5 220855Z AUTO 07003KT 5SM DZ OVC002 10/10 A2994 RMK AO2 T01030103
K3T5 220835Z AUTO 07003KT 7SM OVC002 10/10 A2995 RMK AO2 T01040104
K3T5 220815Z AUTO 04005KT 4SM BR OVC002 10/10 A2994 RMK AO2 T01030103
K3T5 220755Z AUTO 02006KT 3SM BR OVC002 11/11 A2994 RMK AO2 T01050105
K3T5 220735Z AUTO 02005KT 2 1/2SM BR OVC002 11/11 A2996 RMK AO2 T01050105
K3T5 220715Z AUTO 02006KT 3SM BR OVC004 11/11 A2996 RMK AO2 T01060106
K3T5 220655Z AUTO 01005KT 3SM BR OVC004 11/11 A2995 RMK AO2 T01070107
K3T5 220635Z AUTO 03004KT 7SM OVC004 11/11 A2996 RMK AO2 T01070107
K3T5 220615Z AUTO 04004KT 7SM OVC004 11/11 A2997 RMK AO2 T01090109
K3T5 220555Z AUTO 03004KT 10SM OVC004 11/11 A2996 RMK AO2 T01080108 10119 20107 401360089
K3T5 220535Z AUTO 03005KT 7SM OVC004 11/11 A2996 RMK AO2 T01080108
K3T5 220515Z AUTO 01004KT 7SM OVC004 11/11 A2996 RMK AO2 T01100110
K3T5 220455Z AUTO 03004KT 7SM OVC006 11/11 A2995 RMK AO2 T01100110
K3T5 220435Z AUTO 03005KT 10SM OVC006 11/11 A2994 RMK AO2 T01100110
K3T5 220415Z AUTO 03004KT 10SM OVC006 11/11 A2993 RMK AO2 T01090109
K3T5 220355Z AUTO 03004KT 10SM OVC006 11/11 A2993 RMK AO2 T01100110
K3T5 220335Z AUTO 04004KT 10SM OVC006 11/11 A2992 RMK AO2 T01100110
K3T5 220315Z AUTO 05004KT 10SM OVC006 11/11 A2993 RMK AO2 T01100110
K3T5 220255Z AUTO 05005KT 10SM OVC006 11/11 A2992 RMK AO2 T01100110
K3T5 220235Z AUTO 05004KT 10SM OVC006 11/11 A2991 RMK AO2 T01100110
K3T5 220215Z AUTO 05004KT 5SM BR OVC006 11/11 A2989 RMK AO2 T01090109
K3T5 220155Z AUTO 06005KT 5SM BR OVC006 11/11 A2990 RMK AO2 T01100110
K3T5 220135Z AUTO 05004KT 5SM BR OVC006 11/11 A2990 RMK AO2 T01110111
K3T5 220115Z AUTO 05004KT 5SM BR OVC006 11/11 A2989 RMK AO2 T01130113
K3T5 220055Z AUTO 05006KT 10SM OVC008 12/11 A2989 RMK AO2 T01150110
K3T5 220035Z AUTO 04006KT 10SM OVC008 12/11 A2989 RMK AO2 T01160110
K3T5 220015Z AUTO 06004KT 10SM OVC008 12/11 A2988 RMK AO2 T01170109
K3T5 212355Z AUTO 07004KT 10SM OVC008 12/11 A2988 RMK AO2 T01190110 10136 20119
K3T5 212335Z AUTO 05006KT 10SM OVC006 12/11 A2988 RMK AO2 T01200110
K3T5 212315Z AUTO 03007KT 10SM OVC006 12/11 A2987 RMK AO2 T01200110
K3T5 212255Z AUTO 05007KT 10SM OVC006 12/12 A2987 RMK AO2 T01220116
K3T5 212235Z AUTO 04005KT 7SM OVC008 12/12 A2988 RMK AO2 T01220119
K3T5 212215Z AUTO 04004KT 7SM OVC010 12/12 A2988 RMK AO2 T01210117
K3T5 212155Z AUTO 03006KT 5SM BR OVC010 12/11 A2989 RMK AO2 T01240111
K3T5 212135Z AUTO 06004KT 10SM OVC010 13/11 A2989 RMK AO2 T01270110
K3T5 212115Z AUTO 03005KT 10SM OVC010 13/11 A2990 RMK AO2 T01280106
K3T5 212055Z AUTO 04005KT 10SM OVC012 13/11 A2990 RMK AO2 T01300106
K3T5 212035Z AUTO 05004KT 10SM OVC012 13/11 A2990 RMK AO2 T01310107
K3T5 212015Z AUTO 07004KT 10SM OVC012 13/11 A2989 RMK AO2 T01330106
K3T5 211955Z AUTO 05004KT 10SM OVC014 13/10 A2989 RMK AO2 T01310103
K3T5 211935Z AUTO 06004KT 10SM OVC014 13/10 A2990 RMK AO2 T01310101
K3T5 211915Z AUTO 06005KT 10SM OVC014 14/10 A2990 RMK AO2 T01350096
K3T5 211855Z AUTO 03005KT 10SM OVC016 13/09 A2991 RMK AO2 T01320088
K3T5 211835Z AUTO 03006KT 10SM OVC016 13/09 A2992 RMK AO2 T01330085